Time;durP1;ratioP1;P1;durP2;ratioP2;P2;SDS_P1;SDS_P2;PMS_P1;PMS_P2;Temp;Humidity;BMP_temperature;BMP_pressure;BME280_temperature;BME280_humidity;BME280_pressure;Samples;Min_cycle;Max_cycle;Signal;HPM_P1;HPM_P2
2021/11/11 00:00:51;;;;;;;40.75;17.48;;;;;;;3.53;100.00;96865.91;5027875;28;20053;-57
2021/11/11 00:03:20;;;;;;;42.20;17.80;;;;;;;3.78;100.00;96864.44;5030670;28;20250;-55
2021/11/11 00:05:50;;;;;;;32.92;17.08;;;;;;;3.86;100.00;96864.81;5030702;28;20073;-55
2021/11/11 00:08:19;;;;;;;31.30;18.02;;;;;;;4.04;100.00;96858.47;5029320;28;20065;-58
2021/11/11 00:10:48;;;;;;;40.17;17.70;;;;;;;3.66;100.00;96859.97;5032386;28;20467;-57
2021/11/11 00:13:19;;;;;;;38.22;18.80;;;;;;;3.88;100.00;96862.13;5030464;28;20636;-57
2021/11/11 00:15:48;;;;;;;40.53;18.77;;;;;;;3.86;100.00;96854.41;5033121;28;20069;-59
2021/11/11 00:18:17;;;;;;;31.58;18.40;;;;;;;3.96;100.00;96859.91;5031186;28;20084;-55
2021/11/11 00:20:46;;;;;;;30.65;17.95;;;;;;;4.26;100.00;96859.75;5017863;28;20057;-54
2021/11/11 00:23:16;;;;;;;46.42;17.88;;;;;;;4.26;100.00;96855.34;5025547;28;20076;-56
2021/11/11 00:25:44;;;;;;;39.15;18.75;;;;;;;4.21;100.00;96851.38;5018565;28;20084;-54
2021/11/11 00:28:13;;;;;;;35.90;17.02;;;;;;;4.40;100.00;96853.66;5026367;28;20503;-56
2021/11/11 00:30:41;;;;;;;59.35;18.30;;;;;;;4.08;100.00;96858.28;5002723;28;20069;-56
2021/11/11 00:33:10;;;;;;;38.80;18.33;;;;;;;3.71;100.00;96863.97;5031730;28;20454;-57
2021/11/11 00:35:38;;;;;;;42.55;17.58;;;;;;;3.65;100.00;96860.88;5035349;28;20085;-56
2021/11/11 00:38:07;;;;;;;32.53;17.67;;;;;;;3.37;100.00;96857.31;5026975;28;20498;-52
2021/11/11 00:40:37;;;;;;;41.13;17.88;;;;;;;3.41;100.00;96866.66;5013237;28;20085;-57
2021/11/11 00:43:06;;;;;;;43.30;19.63;;;;;;;3.27;100.00;96858.81;5035846;28;20088;-57
2021/11/11 00:45:37;;;;;;;39.65;18.80;;;;;;;3.63;100.00;96849.72;5027662;28;20060;-58
2021/11/11 00:48:06;;;;;;;45.70;18.13;;;;;;;3.80;100.00;96852.16;5031484;28;20065;-58
2021/11/11 00:50:36;;;;;;;50.60;18.58;;;;;;;3.60;100.00;96853.34;5029551;28;20060;-58
2021/11/11 00:53:07;;;;;;;60.97;18.35;;;;;;;3.21;100.00;96849.56;5034842;28;20065;-53
2021/11/11 00:55:37;;;;;;;59.00;18.63;;;;;;;3.50;100.00;96841.78;5022785;28;20084;-59
2021/11/11 00:58:05;;;;;;;;;;;;;;;2.89;100.00;96853.19;5036680;28;20092;-59
2021/11/11 01:00:36;;;;;;;24.52;15.40;;;;;;;2.62;100.00;96859.06;5028337;28;20497;-55
2021/11/11 01:03:06;;;;;;;36.35;16.52;;;;;;;2.64;100.00;96859.78;5028542;28;20072;-54
2021/11/11 01:05:35;;;;;;;48.67;17.95;;;;;;;3.22;100.00;96866.03;5037659;28;20069;-53
2021/11/11 01:08:04;;;;;;;47.85;21.02;;;;;;;3.39;100.00;96875.50;5025122;28;20069;-56
2021/11/11 01:10:34;;;;;;;47.83;18.90;;;;;;;3.51;100.00;96859.97;5013513;28;20089;-56
2021/11/11 01:13:03;;;;;;;64.40;19.13;;;;;;;3.13;100.00;96856.16;5034707;28;20077;-52
2021/11/11 01:15:34;;;;;;;43.35;18.95;;;;;;;3.24;100.00;96861.59;5031187;28;20072;-57
2021/11/11 01:18:05;;;;;;;58.65;19.80;;;;;;;3.15;100.00;96854.31;5036563;28;20069;-58
2021/11/11 01:20:34;;;;;;;54.00;18.92;;;;;;;2.88;100.00;96857.56;5039293;28;20102;-56
2021/11/11 01:23:03;;;;;;;55.28;19.73;;;;;;;2.85;100.00;96858.56;5031196;28;20515;-59
2021/11/11 01:25:34;;;;;;;58.88;19.17;;;;;;;3.32;100.00;96855.00;5035752;28;20680;-59
2021/11/11 01:28:04;;;;;;;52.40;19.40;;;;;;;3.61;100.00;96857.63;5041081;28;20076;-57
2021/11/11 01:30:33;;;;;;;44.92;16.92;;;;;;;3.01;100.00;96857.72;5035230;28;20175;-59
2021/11/11 01:33:01;;;;;;;48.75;17.70;;;;;;;3.41;100.00;96851.00;5038510;28;20483;-59
2021/11/11 01:35:30;;;;;;;42.10;20.50;;;;;;;3.80;100.00;96854.75;5031669;28;20542;-57
2021/11/11 01:37:59;;;;;;;42.92;17.40;;;;;;;3.92;100.00;96853.16;5033963;28;20080;-58
2021/11/11 01:40:27;;;;;;;57.40;18.77;;;;;;;3.74;100.00;96850.75;5035383;28;20088;-55
2021/11/11 01:42:59;;;;;;;52.20;19.02;;;;;;;3.50;100.00;96855.66;5035251;28;21596;-56
2021/11/11 01:45:31;;;;;;;69.50;20.63;;;;;;;3.87;100.00;96852.63;5032272;28;20452;-57
2021/11/11 01:48:00;;;;;;;36.30;18.13;;;;;;;3.74;100.00;96849.91;5039296;28;20075;-57
2021/11/11 01:50:29;;;;;;;87.57;21.08;;;;;;;4.13;100.00;96853.59;5033225;28;20571;-57
2021/11/11 01:52:58;;;;;;;74.53;19.33;;;;;;;4.43;100.00;96843.84;5030788;28;20068;-57
2021/11/11 01:55:27;;;;;;;67.15;19.33;;;;;;;4.51;100.00;96838.16;5022827;28;20084;-59
2021/11/11 01:57:55;;;;;;;56.05;17.75;;;;;;;4.05;100.00;96831.44;5031648;28;20317;-56
2021/11/11 02:00:34;;;;;;;84.72;18.70;;;;;;;4.27;100.00;96838.78;5029785;28;20535;-59
2021/11/11 02:03:05;;;;;;;67.38;17.67;;;;;;;4.18;100.00;96838.50;5014904;28;20077;-58
2021/11/11 02:05:35;;;;;;;52.85;17.20;;;;;;;4.15;100.00;96830.88;5022188;28;20072;-58
2021/11/11 02:08:04;;;;;;;49.97;17.15;;;;;;;4.45;100.00;96833.34;5025498;28;20072;-58
2021/11/11 02:10:34;;;;;;;46.80;16.48;;;;;;;4.46;100.00;96828.00;5037140;28;20521;-56
2021/11/11 02:13:03;;;;;;;32.70;16.48;;;;;;;4.80;100.00;96830.22;5037396;28;20487;-58
2021/11/11 02:15:34;;;;;;;41.43;17.50;;;;;;;4.83;100.00;96837.88;5033277;28;20076;-55
2021/11/11 02:18:04;;;;;;;67.00;18.17;;;;;;;4.63;100.00;96834.75;5032187;28;20080;-57
2021/11/11 02:20:36;;;;;;;44.15;17.65;;;;;;;4.83;100.00;96830.84;5029509;28;20073;-57
2021/11/11 02:23:10;;;;;;;40.22;15.65;;;;;;;4.65;100.00;96832.88;5030982;28;20069;-58
2021/11/11 02:25:39;;;;;;;42.05;16.77;;;;;;;4.43;100.00;96830.78;5031698;28;20111;-57
2021/11/11 02:28:11;;;;;;;44.30;16.48;;;;;;;4.84;100.00;96827.28;5037510;28;20088;-56
2021/11/11 02:30:43;;;;;;;69.82;16.88;;;;;;;4.79;100.00;96831.16;5014170;28;20475;-60
2021/11/11 02:33:13;;;;;;;42.83;16.25;;;;;;;4.53;100.00;96833.66;5013061;28;20062;-55
2021/11/11 02:35:43;;;;;;;52.40;16.30;;;;;;;4.95;100.00;96830.03;5017411;28;20069;-59
2021/11/11 02:38:12;;;;;;;45.45;16.95;;;;;;;4.73;100.00;96824.56;5014554;28;20104;-58
2021/11/11 02:40:41;;;;;;;47.08;16.48;;;;;;;4.85;100.00;96815.06;5032030;28;20077;-53
2021/11/11 02:43:11;;;;;;;52.65;16.80;;;;;;;4.28;100.00;96808.28;5038484;28;20550;-58
2021/11/11 02:45:42;;;;;;;82.35;17.90;;;;;;;4.32;100.00;96815.00;5039556;28;20072;-53
2021/11/11 02:48:13;;;;;;;59.05;16.83;;;;;;;4.72;100.00;96815.88;5027616;28;20069;-57
2021/11/11 02:50:43;;;;;;;56.65;16.95;;;;;;;4.58;100.00;96815.13;5040900;28;20069;-54
2021/11/11 02:53:11;;;;;;;45.00;17.67;;;;;;;4.76;100.00;96811.28;5029445;28;20064;-56
2021/11/11 02:55:41;;;;;;;53.35;17.90;;;;;;;4.98;100.00;96811.53;5003411;28;20069;-52
2021/11/11 02:58:09;;;;;;;53.13;17.80;;;;;;;4.75;100.00;96815.69;5035605;28;20080;-55
2021/11/11 03:00:44;;;;;;;82.45;17.75;;;;;;;4.99;100.00;96815.84;5034160;28;20475;-55
2021/11/11 03:03:13;;;;;;;54.45;17.63;;;;;;;5.18;100.00;96820.69;5030444;28;20075;-57
2021/11/11 03:05:43;;;;;;;37.33;16.80;;;;;;;5.18;100.00;96817.22;5034640;28;20068;-58
2021/11/11 03:08:13;;;;;;;41.05;15.77;;;;;;;5.22;100.00;96810.84;5018114;28;20069;-57
2021/11/11 03:10:42;;;;;;;58.40;17.93;;;;;;;5.21;100.00;96817.03;5019569;28;20077;-59
2021/11/11 03:13:12;;;;;;;41.60;17.63;;;;;;;4.80;100.00;96806.72;5026428;28;21087;-57
2021/11/11 03:15:42;;;;;;;44.07;16.80;;;;;;;4.84;100.00;96814.22;5020874;28;20103;-57
2021/11/11 03:18:11;;;;;;;57.42;17.73;;;;;;;5.29;100.00;96809.50;5026394;28;20054;-55
2021/11/11 03:20:40;;;;;;;55.47;17.10;;;;;;;5.27;100.00;96813.19;5028441;28;20065;-55
2021/11/11 03:23:10;;;;;;;51.42;17.50;;;;;;;5.36;100.00;96815.16;5034618;28;20048;-58
2021/11/11 03:25:40;;;;;;;60.30;18.85;;;;;;;5.10;100.00;96812.53;5032977;28;20758;-59
2021/11/11 03:28:09;;;;;;;61.70;18.35;;;;;;;4.93;100.00;96810.19;5040026;28;20772;-57
2021/11/11 03:30:38;;;;;;;76.25;18.75;;;;;;;5.05;100.00;96824.22;5031096;28;20064;-55
2021/11/11 03:33:07;;;;;;;63.65;17.85;;;;;;;4.91;100.00;96833.78;5033288;28;20065;-59
2021/11/11 03:35:36;;;;;;;62.28;18.30;;;;;;;5.02;100.00;96832.25;5040150;28;20069;-57
2021/11/11 03:38:08;;;;;;;50.00;18.48;;;;;;;4.78;100.00;96832.91;5026666;28;20069;-56
2021/11/11 03:40:42;;;;;;;55.03;18.23;;;;;;;4.43;100.00;96827.34;5036480;28;20084;-54
2021/11/11 03:43:11;;;;;;;35.55;17.13;;;;;;;4.78;100.00;96830.31;5035420;28;20519;-58
2021/11/11 03:45:40;;;;;;;53.42;17.85;;;;;;;4.55;100.00;96829.19;5039005;28;20069;-56
2021/11/11 03:48:09;;;;;;;44.58;18.90;;;;;;;4.68;100.00;96834.44;5027064;28;20117;-57
2021/11/11 03:50:37;;;;;;;58.42;19.60;;;;;;;5.03;100.00;96836.56;5033810;28;20103;-57
2021/11/11 03:53:06;;;;;;;43.20;17.42;;;;;;;5.39;100.00;96838.50;5027466;28;20490;-57
2021/11/11 03:55:34;;;;;;;58.45;19.08;;;;;;;5.12;100.00;96851.63;5031686;28;20553;-57
2021/11/11 03:58:04;;;;;;;57.97;19.52;;;;;;;4.99;100.00;96844.59;5039661;28;20084;-56
2021/11/11 04:00:33;;;;;;;56.20;18.90;;;;;;;5.13;100.00;96845.47;5031137;28;20145;-56
2021/11/11 04:03:01;;;;;;;40.35;19.35;;;;;;;5.21;100.00;96848.41;5005508;28;20070;-58
2021/11/11 04:05:30;;;;;;;70.40;20.30;;;;;;;4.90;100.00;96852.19;5010911;28;20103;-57
2021/11/11 04:07:58;;;;;;;58.95;19.55;;;;;;;4.97;100.00;96853.47;5034687;28;20192;-57
2021/11/11 04:10:27;;;;;;;32.83;17.25;;;;;;;5.10;100.00;96850.91;5035259;28;20085;-58
2021/11/11 04:13:00;;;;;;;36.05;16.63;;;;;;;5.43;100.00;96851.25;5038545;28;20290;-57
2021/11/11 04:15:30;;;;;;;50.08;17.90;;;;;;;5.51;100.00;96848.13;5025195;28;20698;-54
2021/11/11 04:17:59;;;;;;;37.55;18.45;;;;;;;5.68;100.00;96847.00;5031778;28;20072;-55
2021/11/11 04:20:28;;;;;;;55.97;19.30;;;;;;;5.92;100.00;96842.72;5033420;28;20068;-54
2021/11/11 04:22:56;;;;;;;49.13;18.17;;;;;;;5.61;100.00;96848.31;5030392;28;20176;-58
2021/11/11 04:25:29;;;;;;;43.22;19.83;;;;;;;5.67;100.00;96845.28;5013575;28;20073;-57
2021/11/11 04:28:02;;;;;;;49.05;18.42;;;;;;;5.39;100.00;96838.50;5028783;28;20389;-58
2021/11/11 04:30:33;;;;;;;45.35;17.67;;;;;;;5.60;100.00;96836.19;5035190;28;20515;-57
2021/11/11 04:33:04;;;;;;;73.00;18.80;;;;;;;5.47;100.00;96839.66;5019962;28;20463;-56
2021/11/11 04:35:33;;;;;;;110.07;20.38;;;;;;;5.83;100.00;96850.31;5007648;28;20061;-56
2021/11/11 04:38:06;;;;;;;77.28;18.15;;;;;;;5.30;100.00;96845.19;5011176;28;20149;-57
2021/11/11 05:00:45;;;;;;;35.50;15.45;;;;;;;4.60;100.00;96878.50;5016210;28;20069;-53
2021/11/11 05:03:21;;;;;;;35.90;14.95;;;;;;;4.96;100.00;96883.16;5023496;28;20593;-55
2021/11/11 05:05:50;;;;;;;22.80;14.70;;;;;;;4.62;100.00;96871.44;5035596;28;20069;-57
2021/11/11 05:08:18;;;;;;;30.95;14.32;;;;;;;4.68;100.00;96869.28;5028233;28;20765;-57
2021/11/11 05:10:50;;;;;;;30.95;14.65;;;;;;;4.85;100.00;96852.50;5030091;28;20087;-55
2021/11/11 05:13:18;;;;;;;39.10;15.52;;;;;;;4.74;100.00;96853.19;5027665;28;20482;-55
2021/11/11 05:15:47;;;;;;;24.83;14.05;;;;;;;4.28;100.00;96856.13;5030286;28;20527;-56
2021/11/11 05:18:17;;;;;;;29.67;14.70;;;;;;;4.04;100.00;96870.69;5036617;28;20064;-57
2021/11/11 05:20:45;;;;;;;28.45;15.07;;;;;;;4.07;100.00;96865.28;5033413;28;20155;-56
2021/11/11 05:23:14;;;;;;;37.92;15.68;;;;;;;4.00;100.00;96872.66;5026076;28;20531;-60
2021/11/11 05:25:43;;;;;;;24.73;15.13;;;;;;;4.33;100.00;96868.88;5025173;28;20080;-57
2021/11/11 05:28:12;;;;;;;25.95;15.75;;;;;;;4.74;100.00;96870.63;5028249;28;20085;-58
2021/11/11 05:30:40;;;;;;;29.30;15.23;;;;;;;4.75;100.00;96880.16;5015659;28;20077;-56
2021/11/11 05:33:09;;;;;;;41.53;15.63;;;;;;;4.25;100.00;96882.41;5017233;28;20085;-58
2021/11/11 05:35:39;;;;;;;28.83;15.25;;;;;;;4.37;100.00;96880.81;5015150;28;20069;-57
2021/11/11 05:38:08;;;;;;;39.85;15.27;;;;;;;4.71;100.00;96874.31;5017742;28;20069;-57
2021/11/11 05:40:36;;;;;;;45.97;15.10;;;;;;;3.95;100.00;96866.03;5022520;28;20081;-59
2021/11/11 05:43:05;;;;;;;50.50;16.08;;;;;;;4.26;100.00;96867.56;5004662;28;20093;-60
2021/11/11 05:45:34;;;;;;;54.83;15.98;;;;;;;4.48;100.00;96875.75;5013546;28;20065;-60
2021/11/11 05:48:02;;;;;;;50.53;15.93;;;;;;;4.32;100.00;96884.63;5021508;28;20068;-57
2021/11/11 05:50:31;;;;;;;43.88;15.15;;;;;;;4.07;100.00;96887.94;5020658;28;20073;-57
2021/11/11 05:53:01;;;;;;;37.28;15.18;;;;;;;4.15;100.00;96893.50;5025839;28;20112;-58
2021/11/11 05:55:29;;;;;;;51.25;16.30;;;;;;;4.01;100.00;96894.34;5027869;28;20085;-59
2021/11/11 05:57:58;;;;;;;38.42;15.90;;;;;;;3.86;100.00;96892.69;5025521;28;20080;-58
2021/11/11 06:00:28;;;;;;;48.88;16.85;;;;;;;4.28;100.00;96902.28;5025923;28;20519;-54
2021/11/11 06:02:56;;;;;;;51.35;16.90;;;;;;;4.08;100.00;96900.88;5023306;28;20406;-58
2021/11/11 06:05:26;;;;;;;46.10;17.15;;;;;;;4.25;100.00;96903.28;5022998;28;20057;-56
2021/11/11 06:07:54;;;;;;;39.95;17.63;;;;;;;4.37;100.00;96912.16;5018705;28;20459;-59
2021/11/11 06:10:24;;;;;;;41.15;17.58;;;;;;;4.31;100.00;96915.13;5026257;28;20084;-58
2021/11/11 06:12:53;;;;;;;38.22;16.98;;;;;;;3.74;100.00;96917.72;5020777;28;20061;-53
2021/11/11 06:15:21;;;;;;;54.63;18.20;;;;;;;3.74;100.00;96933.38;5019787;28;20068;-54
2021/11/11 06:17:53;;;;;;;51.50;16.90;;;;;;;3.88;100.00;96933.38;5022365;28;20523;-55
2021/11/11 06:20:28;;;;;;;36.08;16.40;;;;;;;4.03;100.00;96931.66;5017569;28;20456;-58
2021/11/11 06:22:56;;;;;;;37.95;16.88;;;;;;;4.09;100.00;96923.41;5023092;28;20038;-56
2021/11/11 06:25:27;;;;;;;48.40;15.63;;;;;;;4.43;100.00;96919.56;5030706;28;20088;-59
2021/11/11 06:27:55;;;;;;;43.90;16.55;;;;;;;4.13;100.00;96921.47;5040547;28;20080;-56
2021/11/11 06:30:24;;;;;;;34.45;16.13;;;;;;;4.11;100.00;96925.97;5033484;28;20077;-55
2021/11/11 06:32:52;;;;;;;33.30;15.68;;;;;;;4.16;100.00;96923.88;5030414;28;20077;-58
2021/11/11 06:35:27;;;;;;;42.28;16.45;;;;;;;4.39;100.00;96935.53;5024022;28;20065;-58
2021/11/11 06:37:57;;;;;;;42.65;15.40;;;;;;;4.14;100.00;96934.44;5019040;28;20161;-59
2021/11/11 06:40:27;;;;;;;30.37;14.27;;;;;;;4.26;100.00;96932.84;5032123;28;20585;-57
2021/11/11 06:42:56;;;;;;;21.10;13.43;;;;;;;4.17;100.00;96922.97;5032970;28;20041;-57
2021/11/11 06:45:26;;;;;;;48.67;13.63;;;;;;;3.78;100.00;96924.44;5033270;28;20114;-58
2021/11/11 06:47:55;;;;;;;48.50;14.32;;;;;;;4.07;100.00;96919.25;5029304;28;20073;-58
2021/11/11 06:50:23;;;;;;;33.22;13.35;;;;;;;4.20;100.00;96913.19;5025129;28;20073;-58
2021/11/11 06:52:52;;;;;;;43.58;14.50;;;;;;;4.25;100.00;96916.34;5020461;28;20072;-57
2021/11/11 06:55:21;;;;;;;49.15;14.30;;;;;;;4.39;100.00;96923.31;5030435;28;20077;-58
2021/11/11 06:57:51;;;;;;;50.53;14.88;;;;;;;3.98;100.00;96923.25;5028840;28;20080;-57
2021/11/11 07:00:20;;;;;;;96.38;16.23;;;;;;;4.10;100.00;96922.50;5027644;28;20065;-54
2021/11/11 07:02:48;;;;;;;61.33;15.70;;;;;;;4.38;100.00;96921.66;5027789;28;20064;-57
2021/11/11 07:05:17;;;;;;;78.90;15.77;;;;;;;4.66;100.00;96918.16;5028556;28;20080;-56
2021/11/11 07:07:45;;;;;;;69.75;15.05;;;;;;;4.84;100.00;96917.91;5028641;28;20077;-57
2021/11/11 07:10:14;;;;;;;65.88;15.10;;;;;;;4.88;100.00;96919.38;5021896;28;20089;-56
2021/11/11 07:12:44;;;;;;;47.67;15.18;;;;;;;4.72;100.00;96930.00;5027132;28;20065;-56
2021/11/11 07:15:15;;;;;;;46.30;15.73;;;;;;;4.80;100.00;96934.72;5028286;28;20458;-56
2021/11/11 07:17:45;;;;;;;45.78;14.68;;;;;;;4.84;100.00;96939.66;5028344;28;20471;-60
2021/11/11 07:20:16;;;;;;;53.33;14.80;;;;;;;3.86;100.00;96950.09;5028844;28;20130;-59
2021/11/11 07:22:45;;;;;;;32.78;14.73;;;;;;;4.07;100.00;96953.19;5028054;28;20088;-55
2021/11/11 07:25:16;;;;;;;52.42;15.73;;;;;;;4.02;100.00;96964.72;5030691;28;20531;-60
2021/11/11 07:27:44;;;;;;;40.50;15.55;;;;;;;3.99;100.00;96961.44;5028236;28;20073;-59
2021/11/11 07:30:16;;;;;;;47.55;16.08;;;;;;;4.38;100.00;96963.44;5017527;28;20076;-57
2021/11/11 07:32:45;;;;;;;36.72;13.82;;;;;;;4.58;100.00;96966.59;5016132;28;20449;-57
2021/11/11 07:35:14;;;;;;;47.35;15.00;;;;;;;4.99;100.00;96967.44;5015031;28;20088;-58
2021/11/11 07:37:44;;;;;;;41.92;14.20;;;;;;;4.93;100.00;96975.66;5027701;28;20092;-56
2021/11/11 07:40:15;;;;;;;56.13;15.15;;;;;;;4.84;100.00;96972.78;5030868;28;20104;-59
2021/11/11 07:42:45;;;;;;;32.60;14.43;;;;;;;5.19;100.00;96971.38;5015904;28;20077;-59
2021/11/11 07:45:18;;;;;;;45.42;14.15;;;;;;;5.02;100.00;96969.00;5021837;28;20061;-57
2021/11/11 07:47:46;;;;;;;38.28;14.27;;;;;;;4.88;100.00;96969.88;5026385;28;20072;-58
2021/11/11 07:50:15;;;;;;;37.30;14.55;;;;;;;4.86;100.00;96969.16;5023152;28;20076;-55
2021/11/11 07:52:43;;;;;;;30.95;14.63;;;;;;;5.05;100.00;96968.81;5027426;28;20077;-57
2021/11/11 07:55:12;;;;;;;30.17;15.93;;;;;;;5.43;100.00;96965.50;5029766;28;20084;-57
2021/11/11 07:57:41;;;;;;;38.22;14.38;;;;;;;5.37;100.00;96969.38;5022798;28;20041;-54
2021/11/11 08:00:12;;;;;;;49.13;14.15;;;;;;;5.13;100.00;96974.41;5026241;28;20100;-57
2021/11/11 08:02:43;;;;;;;54.97;13.70;;;;;;;5.43;100.00;96963.72;5021101;28;20061;-56
2021/11/11 08:05:14;;;;;;;38.92;12.68;;;;;;;5.01;100.00;96959.47;5027293;28;20072;-55
2021/11/11 08:07:44;;;;;;;43.42;12.68;;;;;;;5.26;100.00;96965.75;5028000;28;20041;-58
2021/11/11 08:10:13;;;;;;;47.42;11.52;;;;;;;5.16;100.00;96973.34;5029857;28;20080;-57
2021/11/11 08:12:41;;;;;;;41.63;12.60;;;;;;;5.53;100.00;96961.31;5020030;28;20073;-57
2021/11/11 08:15:10;;;;;;;44.15;11.95;;;;;;;5.20;100.00;96964.38;5014798;28;20587;-57
2021/11/11 08:17:39;;;;;;;44.08;12.23;;;;;;;5.66;100.00;96969.22;5013881;28;20081;-56
2021/11/11 08:20:10;;;;;;;33.67;11.07;;;;;;;5.25;100.00;96964.91;5027286;28;20069;-59
2021/11/11 08:22:39;;;;;;;31.42;11.52;;;;;;;5.53;100.00;96965.72;5027459;28;20097;-58
2021/11/11 08:25:09;;;;;;;34.88;11.80;;;;;;;5.75;100.00;96970.38;5026429;28;20081;-56
2021/11/11 08:27:39;;;;;;;23.67;11.38;;;;;;;4.89;100.00;96984.63;5009455;28;20072;-59
2021/11/11 08:30:10;;;;;;;20.83;11.50;;;;;;;5.41;100.00;96980.47;5024241;28;20064;-58
2021/11/11 08:32:43;;;;;;;34.17;12.85;;;;;;;5.78;100.00;96976.25;5028354;28;20084;-58
2021/11/11 08:35:14;;;;;;;18.08;12.07;;;;;;;5.74;100.00;96987.03;5026973;28;20057;-53
2021/11/11 08:37:44;;;;;;;32.60;12.30;;;;;;;5.62;100.00;96978.22;5026786;28;20104;-55
2021/11/11 08:40:13;;;;;;;25.42;11.38;;;;;;;6.22;100.00;96971.59;5028923;28;20050;-53
2021/11/11 08:42:43;;;;;;;26.95;12.07;;;;;;;6.31;100.00;96958.72;5026485;28;20534;-58
2021/11/11 08:45:11;;;;;;;38.88;12.07;;;;;;;6.32;100.00;96960.38;5022574;28;20107;-57
2021/11/11 08:47:40;;;;;;;35.85;12.40;;;;;;;7.05;100.00;96961.38;5027262;28;20068;-54
2021/11/11 08:50:11;;;;;;;19.55;12.07;;;;;;;7.16;100.00;96957.97;5026492;28;20356;-56
2021/11/11 08:52:44;;;;;;;48.33;12.75;;;;;;;6.69;100.00;96965.69;5024986;28;20096;-57
2021/11/11 08:55:14;;;;;;;25.50;11.85;;;;;;;6.95;100.00;96965.59;5023947;28;20520;-58
2021/11/11 08:57:43;;;;;;;23.10;12.95;;;;;;;7.11;100.00;96956.53;5021034;28;20464;-58
2021/11/11 09:00:16;;;;;;;49.87;12.93;;;;;;;7.53;100.00;96962.19;5019816;28;20448;-58
2021/11/11 09:02:45;;;;;;;28.10;11.85;;;;;;;7.24;100.00;96956.47;5026639;28;20049;-58
2021/11/11 09:05:15;;;;;;;28.15;11.45;;;;;;;7.32;100.00;96951.50;5026669;28;20077;-56
2021/11/11 09:07:45;;;;;;;29.80;11.88;;;;;;;7.79;100.00;96946.31;5024681;28;20575;-59
2021/11/11 09:10:15;;;;;;;33.05;12.40;;;;;;;7.08;100.00;96955.91;5026758;28;20096;-58
2021/11/11 09:12:43;;;;;;;34.25;11.88;;;;;;;7.02;100.00;96961.59;5024960;28;20076;-57
2021/11/11 09:15:14;;;;;;;28.00;12.10;;;;;;;6.61;100.00;96963.59;5026577;28;20079;-57
2021/11/11 09:17:43;;;;;;;32.78;12.27;;;;;;;7.91;100.00;96945.38;5026452;28;20083;-56
2021/11/11 09:20:12;;;;;;;50.45;12.40;;;;;;;7.80;100.00;96937.47;5026263;28;20186;-55
2021/11/11 09:22:41;;;;;;;31.00;12.90;;;;;;;7.45;100.00;96948.81;5025301;28;20084;-57
2021/11/11 09:25:12;;;;;;;41.17;12.70;;;;;;;7.31;100.00;96951.63;5029607;28;20084;-56
2021/11/11 09:27:41;;;;;;;31.30;12.20;;;;;;;7.90;100.00;96930.56;5032445;28;20084;-57
2021/11/11 09:30:12;;;;;;;30.45;13.15;;;;;;;8.19;100.00;96938.00;5030665;28;20073;-58
2021/11/11 09:32:42;;;;;;;51.03;13.85;;;;;;;7.96;100.00;96943.25;5029603;28;20076;-56
2021/11/11 09:35:11;;;;;;;44.60;13.98;;;;;;;8.55;100.00;96943.09;5028215;28;20076;-57
2021/11/11 09:37:40;;;;;;;38.10;13.05;;;;;;;8.35;100.00;96953.44;5027568;28;20085;-56
2021/11/11 09:40:15;;;;;;;58.58;13.35;;;;;;;7.40;100.00;96963.22;5027399;28;20081;-58
2021/11/11 09:42:45;;;;;;;22.08;12.48;;;;;;;7.90;100.00;96958.63;5029369;28;20080;-57
2021/11/11 09:45:16;;;;;;;24.17;12.70;;;;;;;7.04;100.00;96965.78;5030030;28;20073;-58
2021/11/11 09:47:46;;;;;;;38.65;13.25;;;;;;;7.71;100.00;96961.78;5030405;28;20527;-57
2021/11/11 09:50:15;;;;;;;;;;;;;;;7.34;100.00;96973.22;5017767;28;20065;-54
2021/11/11 09:52:44;;;;;;;31.95;12.40;;;;;;;7.68;100.00;96968.13;5017167;28;19979;-57
2021/11/11 10:00:48;;;;;;;53.05;13.68;;;;;;;8.11;100.00;96943.03;5029698;28;20069;-55
2021/11/11 10:03:17;;;;;;;42.35;12.90;;;;;;;7.70;100.00;96945.19;5024962;28;20061;-52
2021/11/11 10:05:46;;;;;;;45.72;13.30;;;;;;;7.24;100.00;96946.00;5028970;28;20061;-58
2021/11/11 10:08:34;;;;;;;46.20;12.65;;;;;;;8.40;100.00;96932.94;5029739;28;20541;-57
2021/11/11 10:11:06;;;;;;;34.17;12.63;;;;;;;8.28;100.00;96940.78;5026191;28;20076;-54
2021/11/11 10:13:35;;;;;;;20.77;13.13;;;;;;;8.76;100.00;96943.19;5029488;28;20108;-58
2021/11/11 10:16:10;;;;;;;25.27;13.27;;;;;;;8.48;100.00;96936.63;5031940;28;20092;-53
2021/11/11 10:18:42;;;;;;;33.28;13.07;;;;;;;9.57;100.00;96938.44;5025093;28;20069;-57
2021/11/11 10:21:23;;;;;;;39.38;12.82;;;;;;;8.93;100.00;96935.75;5022538;28;20076;-52
2021/11/11 10:23:52;;;;;;;32.50;12.48;;;;;;;9.30;100.00;96935.44;5028949;28;20072;-57
2021/11/11 10:26:27;;;;;;;28.13;13.38;;;;;;;9.39;100.00;96934.66;5029067;28;20069;-55
2021/11/11 10:28:56;;;;;;;25.02;13.30;;;;;;;9.25;100.00;96927.88;5028883;28;20074;-59
2021/11/11 10:31:24;;;;;;;29.30;12.80;;;;;;;9.19;100.00;96923.16;5026895;28;20077;-55
2021/11/11 10:34:07;;;;;;;34.53;12.45;;;;;;;9.52;100.00;96924.78;5003259;28;20309;-57
2021/11/11 10:36:43;;;;;;;25.80;13.07;;;;;;;9.59;100.00;96922.50;5019380;28;20065;-54
2021/11/11 10:39:24;;;;;;;30.85;13.27;;;;;;;8.73;100.00;96929.44;5026280;28;20065;-56
2021/11/11 10:41:55;;;;;;;37.75;13.63;;;;;;;9.40;100.00;96920.56;5022006;28;20073;-56
2021/11/11 10:44:30;;;;;;;37.42;13.18;;;;;;;9.31;100.00;96916.88;5016606;28;20073;-54
2021/11/11 10:47:01;;;;;;;23.30;15.05;;;;;;;9.52;100.00;96919.53;5013517;28;20073;-55
2021/11/11 10:49:32;;;;;;;42.72;15.20;;;;;;;9.21;100.00;96914.16;5017512;28;20076;-58
2021/11/11 10:52:35;;;;;;;28.98;14.95;;;;;;;9.54;100.00;96919.41;5025319;28;20084;-57
2021/11/11 10:55:21;;;;;;;29.45;14.10;;;;;;;9.35;100.00;96925.34;5025859;28;20468;-56
2021/11/11 10:57:54;;;;;;;29.27;13.63;;;;;;;9.17;100.00;96936.41;5028572;28;20069;-55
2021/11/11 11:00:34;;;;;;;26.25;21.23;;;;;;;10.24;100.00;96926.66;5028312;28;20071;-54
2021/11/11 11:03:05;;;;;;;47.22;16.95;;;;;;;10.62;100.00;96925.19;5028022;28;20076;-56
2021/11/11 11:05:38;;;;;;;27.60;14.40;;;;;;;9.86;100.00;96917.56;5028839;28;20064;-56
2021/11/11 11:08:09;;;;;;;34.95;14.25;;;;;;;9.87;100.00;96927.13;5028864;28;20089;-54
2021/11/11 11:10:37;;;;;;;;;;;;;;;9.22;100.00;96931.63;5011127;28;20089;-54
2021/11/11 11:13:13;;;;;;;42.33;15.00;;;;;;;9.80;100.00;96922.50;5010462;28;20384;-57
2021/11/11 11:15:51;;;;;;;24.95;14.88;;;;;;;9.13;100.00;96929.72;5026747;28;20089;-57
2021/11/11 11:18:22;;;;;;;35.47;15.25;;;;;;;9.99;100.00;96915.56;5022865;28;20099;-56
2021/11/11 11:20:56;;;;;;;32.53;15.20;;;;;;;9.64;100.00;96921.16;5027824;28;20069;-55
2021/11/11 11:23:31;;;;;;;21.83;15.90;;;;;;;9.78;100.00;96924.44;5028156;28;20065;-56
2021/11/11 11:26:10;;;;;;;59.00;20.48;;;;;;;9.73;100.00;96914.28;5027897;28;20348;-53
2021/11/11 11:28:48;;;;;;;94.40;20.30;;;;;;;9.57;100.00;96904.19;5026062;28;20099;-55
2021/11/11 11:31:34;;;;;;;29.17;21.70;;;;;;;10.15;100.00;96907.19;5027637;28;20073;-54
2021/11/11 11:34:07;;;;;;;38.10;28.65;;;;;;;10.02;100.00;96905.75;5026485;28;20447;-56
2021/11/11 11:36:39;;;;;;;19.55;15.55;;;;;;;9.66;100.00;96923.66;5027608;28;20080;-58
2021/11/11 11:39:09;;;;;;;22.23;17.42;;;;;;;9.40;100.00;96913.50;5027637;28;20088;-55
2021/11/11 11:41:39;;;;;;;32.85;16.65;;;;;;;9.45;100.00;96908.66;5026397;28;20076;-53
2021/11/11 11:44:37;;;;;;;27.58;18.77;;;;;;;9.92;100.00;96903.03;5024643;28;20088;-59
2021/11/11 11:47:17;;;;;;;24.25;16.85;;;;;;;9.62;100.00;96904.63;5025127;28;20077;-56
2021/11/11 11:49:51;;;;;;;21.88;15.77;;;;;;;9.54;100.00;96906.25;5025970;28;20077;-56
2021/11/11 11:52:20;;;;;;;26.63;18.25;;;;;;;9.80;100.00;96907.53;5010197;28;20167;-57
2021/11/11 11:54:55;;;;;;;32.67;17.35;;;;;;;9.82;100.00;96910.06;5027030;28;20088;-57
2021/11/11 11:57:34;;;;;;;24.00;16.15;;;;;;;9.61;100.00;96910.88;5026528;28;20077;-54